sensor_id;sensor_type;location;lat;lon;timestamp;pressure;altitude;pressure_sealevel;temperature;humidity
46456;BME280;64052;47.466;9.094;2022-12-26T00:02:45;95924.66;;;5.56;75.36
46456;BME280;64052;47.466;9.094;2022-12-26T00:07:47;95925.72;;;5.66;75.34
46456;BME280;64052;47.466;9.094;2022-12-26T00:12:48;95941.25;;;5.69;74.85
46456;BME280;64052;47.466;9.094;2022-12-26T00:17:50;95936.38;;;5.63;74.09
46456;BME280;64052;47.466;9.094;2022-12-26T00:22:51;95945.47;;;5.57;73.96
46456;BME280;64052;47.466;9.094;2022-12-26T00:27:55;95959.19;;;5.61;73.40
46456;BME280;64052;47.466;9.094;2022-12-26T00:32:57;95953.09;;;5.60;73.14
46456;BME280;64052;47.466;9.094;2022-12-26T00:38:00;95955.19;;;5.55;72.84
46456;BME280;64052;47.466;9.094;2022-12-26T00:43:01;95960.78;;;5.49;73.95
46456;BME280;64052;47.466;9.094;2022-12-26T00:48:03;95960.81;;;5.34;73.85
46456;BME280;64052;47.466;9.094;2022-12-26T00:53:04;95959.81;;;5.23;75.08
46456;BME280;64052;47.466;9.094;2022-12-26T00:58:06;95958.13;;;5.36;76.00
46456;BME280;64052;47.466;9.094;2022-12-26T01:03:09;95970.97;;;5.68;74.49
46456;BME280;64052;47.466;9.094;2022-12-26T01:08:12;95953.88;;;5.48;72.24
46456;BME280;64052;47.466;9.094;2022-12-26T01:13:24;95972.78;;;5.39;72.93
46456;BME280;64052;47.466;9.094;2022-12-26T01:18:26;95968.50;;;5.09;74.56
46456;BME280;64052;47.466;9.094;2022-12-26T01:23:28;95963.47;;;5.20;76.32
46456;BME280;64052;47.466;9.094;2022-12-26T01:28:30;95970.91;;;5.41;76.23
46456;BME280;64052;47.466;9.094;2022-12-26T01:33:32;95974.34;;;5.56;75.85
46456;BME280;64052;47.466;9.094;2022-12-26T01:38:33;95978.56;;;5.44;76.71
46456;BME280;64052;47.466;9.094;2022-12-26T01:44:06;95987.44;;;5.41;76.57
46456;BME280;64052;47.466;9.094;2022-12-26T01:49:13;95986.13;;;5.48;75.75
46456;BME280;64052;47.466;9.094;2022-12-26T01:54:16;95986.69;;;5.39;75.06
46456;BME280;64052;47.466;9.094;2022-12-26T01:59:39;95988.59;;;5.23;75.14
46456;BME280;64052;47.466;9.094;2022-12-26T02:04:48;95992.97;;;5.22;75.49
46456;BME280;64052;47.466;9.094;2022-12-26T02:09:50;95997.44;;;5.20;74.39
46456;BME280;64052;47.466;9.094;2022-12-26T02:14:55;96000.72;;;5.24;72.89
46456;BME280;64052;47.466;9.094;2022-12-26T02:25:35;95991.94;;;5.10;73.39
46456;BME280;64052;47.466;9.094;2022-12-26T02:46:56;95979.31;;;4.59;75.12
46456;BME280;64052;47.466;9.094;2022-12-26T02:52:15;95976.81;;;4.57;74.53
46456;BME280;64052;47.466;9.094;2022-12-26T02:57:23;95966.16;;;4.60;73.90
46456;BME280;64052;47.466;9.094;2022-12-26T03:02:42;95979.06;;;4.92;72.52
46456;BME280;64052;47.466;9.094;2022-12-26T03:07:46;95982.78;;;4.74;72.69
46456;BME280;64052;47.466;9.094;2022-12-26T03:12:55;95972.06;;;4.64;73.79
46456;BME280;64052;47.466;9.094;2022-12-26T03:18:02;95982.78;;;4.74;73.70
46456;BME280;64052;47.466;9.094;2022-12-26T03:23:11;95981.09;;;4.73;73.60
46456;BME280;64052;47.466;9.094;2022-12-26T03:28:14;95987.06;;;4.75;74.12
46456;BME280;64052;47.466;9.094;2022-12-26T03:33:33;95986.88;;;4.63;75.57
46456;BME280;64052;47.466;9.094;2022-12-26T03:39:00;96005.06;;;4.65;75.14
46456;BME280;64052;47.466;9.094;2022-12-26T03:49:27;96002.69;;;4.91;76.76
46456;BME280;64052;47.466;9.094;2022-12-26T03:54:52;96002.94;;;5.01;78.15
46456;BME280;64052;47.466;9.094;2022-12-26T04:00:15;96002.78;;;5.33;78.79
46456;BME280;64052;47.466;9.094;2022-12-26T04:05:16;96008.53;;;5.38;79.62
46456;BME280;64052;47.466;9.094;2022-12-26T04:10:30;96008.72;;;5.49;78.30
46456;BME280;64052;47.466;9.094;2022-12-26T04:15:44;96005.38;;;5.47;74.00
46456;BME280;64052;47.466;9.094;2022-12-26T04:26:34;96007.81;;;5.22;74.97
46456;BME280;64052;47.466;9.094;2022-12-26T04:31:55;96005.38;;;5.18;76.89
46456;BME280;64052;47.466;9.094;2022-12-26T04:37:03;96006.22;;;5.33;77.60
46456;BME280;64052;47.466;9.094;2022-12-26T04:42:07;96002.38;;;5.39;79.47
46456;BME280;64052;47.466;9.094;2022-12-26T04:47:10;96005.81;;;5.54;77.50
46456;BME280;64052;47.466;9.094;2022-12-26T04:52:13;95996.88;;;5.44;77.13
46456;BME280;64052;47.466;9.094;2022-12-26T04:57:15;96004.16;;;5.53;78.96
46456;BME280;64052;47.466;9.094;2022-12-26T05:02:16;96014.16;;;5.88;79.65
46456;BME280;64052;47.466;9.094;2022-12-26T05:07:29;95998.91;;;5.95;79.39
46456;BME280;64052;47.466;9.094;2022-12-26T05:12:31;96006.00;;;6.08;79.74
46456;BME280;64052;47.466;9.094;2022-12-26T05:17:33;95996.09;;;6.26;78.75
46456;BME280;64052;47.466;9.094;2022-12-26T05:22:37;95986.72;;;6.49;79.45
46456;BME280;64052;47.466;9.094;2022-12-26T05:27:42;95989.47;;;6.60;78.46
46456;BME280;64052;47.466;9.094;2022-12-26T05:32:44;95968.28;;;6.64;78.31
46456;BME280;64052;47.466;9.094;2022-12-26T05:37:46;95987.47;;;6.77;78.03
46456;BME280;64052;47.466;9.094;2022-12-26T05:42:48;95993.25;;;6.82;79.11
46456;BME280;64052;47.466;9.094;2022-12-26T05:47:49;95992.31;;;7.09;79.69
46456;BME280;64052;47.466;9.094;2022-12-26T05:52:54;95991.75;;;7.43;78.88
46456;BME280;64052;47.466;9.094;2022-12-26T05:57:59;95989.38;;;7.64;76.75
46456;BME280;64052;47.466;9.094;2022-12-26T06:03:00;95989.53;;;7.50;76.63
46456;BME280;64052;47.466;9.094;2022-12-26T06:08:02;95984.91;;;7.53;76.07
46456;BME280;64052;47.466;9.094;2022-12-26T06:13:04;95975.38;;;7.39;76.26
46456;BME280;64052;47.466;9.094;2022-12-26T06:18:06;95983.78;;;7.31;76.64
46456;BME280;64052;47.466;9.094;2022-12-26T06:23:08;95979.59;;;7.29;77.18
46456;BME280;64052;47.466;9.094;2022-12-26T06:28:09;95977.28;;;7.37;78.56
46456;BME280;64052;47.466;9.094;2022-12-26T06:33:11;95966.78;;;7.37;77.26
46456;BME280;64052;47.466;9.094;2022-12-26T06:38:13;95965.09;;;7.36;76.84
46456;BME280;64052;47.466;9.094;2022-12-26T06:43:14;95957.53;;;7.44;76.64
46456;BME280;64052;47.466;9.094;2022-12-26T06:48:16;95958.50;;;7.68;76.22
46456;BME280;64052;47.466;9.094;2022-12-26T06:53:18;95962.63;;;7.83;74.54
46456;BME280;64052;47.466;9.094;2022-12-26T06:58:19;95953.28;;;7.92;73.80
46456;BME280;64052;47.466;9.094;2022-12-26T07:03:21;95962.47;;;8.22;72.51
46456;BME280;64052;47.466;9.094;2022-12-26T07:08:23;95964.91;;;8.37;72.45
46456;BME280;64052;47.466;9.094;2022-12-26T07:13:25;95967.06;;;8.32;71.77
46456;BME280;64052;47.466;9.094;2022-12-26T07:18:26;95966.34;;;8.29;72.08
46456;BME280;64052;47.466;9.094;2022-12-26T07:23:28;95959.22;;;8.19;73.00
46456;BME280;64052;47.466;9.094;2022-12-26T07:28:30;95950.97;;;8.12;72.11
46456;BME280;64052;47.466;9.094;2022-12-26T07:33:32;95952.19;;;7.95;72.50
46456;BME280;64052;47.466;9.094;2022-12-26T07:38:34;95951.47;;;7.68;73.41
46456;BME280;64052;47.466;9.094;2022-12-26T07:43:35;95955.50;;;7.61;73.30
46456;BME280;64052;47.466;9.094;2022-12-26T07:48:37;95948.78;;;7.57;74.23
46456;BME280;64052;47.466;9.094;2022-12-26T07:53:40;95948.00;;;7.68;73.40
46456;BME280;64052;47.466;9.094;2022-12-26T07:58:41;95951.09;;;7.62;74.24
46456;BME280;64052;47.466;9.094;2022-12-26T08:03:43;95945.50;;;7.66;73.50
46456;BME280;64052;47.466;9.094;2022-12-26T08:08:46;95950.50;;;7.45;74.67
46456;BME280;64052;47.466;9.094;2022-12-26T08:13:51;95948.72;;;7.32;75.20
46456;BME280;64052;47.466;9.094;2022-12-26T08:18:53;95956.06;;;7.40;75.44
46456;BME280;64052;47.466;9.094;2022-12-26T08:23:55;95958.25;;;7.47;75.28
46456;BME280;64052;47.466;9.094;2022-12-26T08:28:56;95966.50;;;7.66;75.76
46456;BME280;64052;47.466;9.094;2022-12-26T08:34:02;95967.78;;;7.85;76.06
46456;BME280;64052;47.466;9.094;2022-12-26T08:39:10;95963.50;;;7.84;74.45
46456;BME280;64052;47.466;9.094;2022-12-26T08:44:14;95946.56;;;7.88;73.93
46456;BME280;64052;47.466;9.094;2022-12-26T08:49:31;95957.78;;;7.90;75.04
46456;BME280;64052;47.466;9.094;2022-12-26T08:54:33;95967.06;;;8.07;75.72
46456;BME280;64052;47.466;9.094;2022-12-26T08:59:34;95958.66;;;8.26;75.72
46456;BME280;64052;47.466;9.094;2022-12-26T09:04:36;95965.25;;;8.56;75.33
46456;BME280;64052;47.466;9.094;2022-12-26T09:09:37;95960.13;;;8.66;74.86
46456;BME280;64052;47.466;9.094;2022-12-26T09:14:39;95959.22;;;8.90;74.97
46456;BME280;64052;47.466;9.094;2022-12-26T09:19:41;95965.91;;;9.17;75.71
46456;BME280;64052;47.466;9.094;2022-12-26T09:24:43;95971.78;;;9.32;75.86
46456;BME280;64052;47.466;9.094;2022-12-26T09:29:45;95982.75;;;9.60;75.10
46456;BME280;64052;47.466;9.094;2022-12-26T09:34:47;95979.38;;;9.92;74.88
46456;BME280;64052;47.466;9.094;2022-12-26T09:39:49;95980.59;;;10.21;75.19
46456;BME280;64052;47.466;9.094;2022-12-26T09:44:57;95981.72;;;10.39;75.25
46456;BME280;64052;47.466;9.094;2022-12-26T09:55:43;95992.25;;;10.93;73.26
46456;BME280;64052;47.466;9.094;2022-12-26T10:01:10;96003.28;;;11.08;73.51
46456;BME280;64052;47.466;9.094;2022-12-26T10:06:25;96014.63;;;11.20;72.69
46456;BME280;64052;47.466;9.094;2022-12-26T10:43:43;96038.38;;;12.23;67.04
46456;BME280;64052;47.466;9.094;2022-12-26T10:48:45;96054.25;;;12.23;66.59
46456;BME280;64052;47.466;9.094;2022-12-26T10:53:49;96045.75;;;12.30;64.57
46456;BME280;64052;47.466;9.094;2022-12-26T11:04:16;96062.53;;;12.09;66.67
46456;BME280;64052;47.466;9.094;2022-12-26T11:09:43;96086.50;;;12.27;67.97
46456;BME280;64052;47.466;9.094;2022-12-26T11:25:25;96117.81;;;12.22;70.80
46456;BME280;64052;47.466;9.094;2022-12-26T11:30:32;96131.75;;;11.72;73.73
46456;BME280;64052;47.466;9.094;2022-12-26T11:35:37;96130.56;;;11.55;74.97
46456;BME280;64052;47.466;9.094;2022-12-26T11:40:47;96134.72;;;11.57;75.66
46456;BME280;64052;47.466;9.094;2022-12-26T11:45:49;96130.09;;;11.28;76.86
46456;BME280;64052;47.466;9.094;2022-12-26T12:12:55;96142.66;;;11.57;77.67
46456;BME280;64052;47.466;9.094;2022-12-26T12:34:47;96151.16;;;11.61;78.13
46456;BME280;64052;47.466;9.094;2022-12-26T12:40:05;96154.88;;;11.37;79.20
46456;BME280;64052;47.466;9.094;2022-12-26T12:45:26;96155.00;;;11.35;79.41
46456;BME280;64052;47.466;9.094;2022-12-26T12:50:47;96148.84;;;11.25;78.12
46456;BME280;64052;47.466;9.094;2022-12-26T12:56:32;96159.78;;;11.20;78.18
46456;BME280;64052;47.466;9.094;2022-12-26T13:01:46;96162.69;;;11.38;77.35
46456;BME280;64052;47.466;9.094;2022-12-26T13:12:26;96177.63;;;10.29;81.10
46456;BME280;64052;47.466;9.094;2022-12-26T13:17:33;96169.53;;;10.76;80.73
46456;BME280;64052;47.466;9.094;2022-12-26T13:22:43;96176.69;;;11.18;78.99
46456;BME280;64052;47.466;9.094;2022-12-26T13:27:46;96167.88;;;11.07;77.89
46456;BME280;64052;47.466;9.094;2022-12-26T13:32:54;96167.50;;;11.12;77.16
46456;BME280;64052;47.466;9.094;2022-12-26T13:43:25;96162.31;;;11.10;76.32
46456;BME280;64052;47.466;9.094;2022-12-26T17:02:31;96149.69;;;11.68;66.77
46456;BME280;64052;47.466;9.094;2022-12-26T17:07:38;96173.38;;;11.58;66.94
46456;BME280;64052;47.466;9.094;2022-12-26T17:12:47;96175.16;;;11.79;65.98
46456;BME280;64052;47.466;9.094;2022-12-26T17:17:49;96191.25;;;12.18;64.42
46456;BME280;64052;47.466;9.094;2022-12-26T17:22:52;96194.47;;;12.22;62.98
46456;BME280;64052;47.466;9.094;2022-12-26T17:33:26;96164.59;;;11.79;65.31
46456;BME280;64052;47.466;9.094;2022-12-26T17:38:29;96175.25;;;11.67;65.65
46456;BME280;64052;47.466;9.094;2022-12-26T17:48:33;96156.06;;;11.44;66.22
46456;BME280;64052;47.466;9.094;2022-12-26T17:53:37;96210.97;;;11.29;66.29
46456;BME280;64052;47.466;9.094;2022-12-26T17:58:43;96209.88;;;11.32;65.30
46456;BME280;64052;47.466;9.094;2022-12-26T18:03:44;96183.56;;;11.42;64.12
46456;BME280;64052;47.466;9.094;2022-12-26T18:08:46;96208.41;;;11.60;64.12
46456;BME280;64052;47.466;9.094;2022-12-26T18:13:48;96180.25;;;11.49;64.33
46456;BME280;64052;47.466;9.094;2022-12-26T18:18:49;96165.13;;;11.51;64.42
46456;BME280;64052;47.466;9.094;2022-12-26T18:23:51;96194.81;;;11.44;64.60
46456;BME280;64052;47.466;9.094;2022-12-26T18:28:52;96207.84;;;11.57;64.41
46456;BME280;64052;47.466;9.094;2022-12-26T18:33:54;96210.81;;;11.85;63.05
46456;BME280;64052;47.466;9.094;2022-12-26T18:38:56;96219.13;;;11.59;63.39
46456;BME280;64052;47.466;9.094;2022-12-26T18:43:57;96233.06;;;11.49;62.26
46456;BME280;64052;47.466;9.094;2022-12-26T18:48:59;96225.13;;;11.28;61.75
46456;BME280;64052;47.466;9.094;2022-12-26T18:54:01;96224.34;;;11.49;61.47
46456;BME280;64052;47.466;9.094;2022-12-26T18:59:02;96196.03;;;11.39;62.10
46456;BME280;64052;47.466;9.094;2022-12-26T19:20:18;96245.78;;;11.56;58.91
46456;BME280;64052;47.466;9.094;2022-12-26T19:42:36;96244.84;;;11.24;58.68
46456;BME280;64052;47.466;9.094;2022-12-26T19:47:40;96251.50;;;11.39;59.18
46456;BME280;64052;47.466;9.094;2022-12-26T19:52:42;96247.56;;;11.55;59.73
46456;BME280;64052;47.466;9.094;2022-12-26T20:19:43;96283.00;;;11.08;65.66
46456;BME280;64052;47.466;9.094;2022-12-26T20:30:16;96309.91;;;11.02;63.86
46456;BME280;64052;47.466;9.094;2022-12-26T20:40:43;96298.47;;;11.13;65.85
46456;BME280;64052;47.466;9.094;2022-12-26T20:46:05;96297.78;;;10.88;66.37
46456;BME280;64052;47.466;9.094;2022-12-26T20:56:41;96295.03;;;10.90;66.04
46456;BME280;64052;47.466;9.094;2022-12-26T21:01:57;96318.53;;;11.04;64.00
46456;BME280;64052;47.466;9.094;2022-12-26T21:07:16;96336.38;;;11.12;65.77
46456;BME280;64052;47.466;9.094;2022-12-26T21:12:53;96354.84;;;11.12;66.00
46456;BME280;64052;47.466;9.094;2022-12-26T21:29:03;96417.72;;;10.95;69.08
46456;BME280;64052;47.466;9.094;2022-12-26T21:40:21;96425.69;;;10.60;69.97
46456;BME280;64052;47.466;9.094;2022-12-26T21:45:23;96450.19;;;10.37;70.08
46456;BME280;64052;47.466;9.094;2022-12-26T21:50:43;96442.22;;;10.50;68.73
46456;BME280;64052;47.466;9.094;2022-12-26T21:55:46;96447.94;;;10.44;69.12
46456;BME280;64052;47.466;9.094;2022-12-26T22:00:47;96458.50;;;10.44;69.53
46456;BME280;64052;47.466;9.094;2022-12-26T22:05:49;96464.03;;;10.28;70.36
46456;BME280;64052;47.466;9.094;2022-12-26T22:10:51;96471.88;;;10.17;70.58
46456;BME280;64052;47.466;9.094;2022-12-26T22:15:54;96470.38;;;9.77;72.34
46456;BME280;64052;47.466;9.094;2022-12-26T22:21:03;96466.84;;;10.13;71.65
46456;BME280;64052;47.466;9.094;2022-12-26T22:26:07;96477.91;;;10.43;70.40
46456;BME280;64052;47.466;9.094;2022-12-26T22:36:25;96487.97;;;10.49;70.40
46456;BME280;64052;47.466;9.094;2022-12-26T22:41:27;96481.88;;;10.49;70.63
46456;BME280;64052;47.466;9.094;2022-12-26T22:46:30;96486.81;;;10.53;69.86
46456;BME280;64052;47.466;9.094;2022-12-26T22:51:32;96485.75;;;10.56;70.06
46456;BME280;64052;47.466;9.094;2022-12-26T22:56:34;96491.81;;;10.45;70.54
46456;BME280;64052;47.466;9.094;2022-12-26T23:01:35;96497.63;;;10.62;70.59
46456;BME280;64052;47.466;9.094;2022-12-26T23:06:38;96510.81;;;10.73;70.05
46456;BME280;64052;47.466;9.094;2022-12-26T23:11:40;96518.44;;;10.53;70.25
46456;BME280;64052;47.466;9.094;2022-12-26T23:16:53;96519.75;;;10.48;70.01
46456;BME280;64052;47.466;9.094;2022-12-26T23:21:59;96529.34;;;10.49;70.25
46456;BME280;64052;47.466;9.094;2022-12-26T23:27:03;96524.16;;;10.72;69.32
46456;BME280;64052;47.466;9.094;2022-12-26T23:32:12;96522.97;;;10.27;70.18
46456;BME280;64052;47.466;9.094;2022-12-26T23:37:14;96517.72;;;10.87;68.42
46456;BME280;64052;47.466;9.094;2022-12-26T23:42:15;96519.88;;;11.05;67.88
46456;BME280;64052;47.466;9.094;2022-12-26T23:47:18;96526.66;;;10.62;68.51
46456;BME280;64052;47.466;9.094;2022-12-26T23:52:19;96538.22;;;10.95;67.49
46456;BME280;64052;47.466;9.094;2022-12-26T23:57:27;96541.34;;;10.89;67.59
